Time;durP1;ratioP1;P1;durP2;ratioP2;P2;SDS_P1;SDS_P2;PMS_P1;PMS_P2;Temp;Humidity;BMP_temperature;BMP_pressure;BME280_temperature;BME280_humidity;BME280_pressure;Samples;Min_cycle;Max_cycle;Signal;HPM_P1;HPM_P2
2023/01/07 00:00:01;;;;;;;1.40;0.70;;;;;;;;;;521523;28;1232;-59
2023/01/07 00:00:16;;;;;;;0.90;0.60;;;;;;;;;;521837;28;1981;-60
2023/01/07 00:00:32;;;;;;;1.20;0.60;;;;;;;;;;522093;28;1488;-60
2023/01/07 00:00:47;;;;;;;1.10;0.70;;;;;;;;;;525201;28;1471;-60
2023/01/07 00:01:04;;;;;;;0.75;0.60;;;;;;;;;;524562;28;1011;-60
2023/01/07 00:01:22;;;;;;;1.02;0.80;;;;;;;;;;525242;28;1191;-60
2023/01/07 00:01:42;;;;;;;1.20;0.70;;;;;;;;;;524188;28;1090;-60
2023/01/07 00:01:58;;;;;;;1.65;0.73;;;;;;;;;;522395;28;1461;-60
2023/01/07 00:02:13;;;;;;;1.20;0.70;;;;;;;;;;525160;28;1193;-60
2023/01/07 00:02:28;;;;;;;0.95;0.63;;;;;;;;;;524879;28;1316;-60
2023/01/07 00:02:44;;;;;;;1.33;0.60;;;;;;;;;;522936;28;1229;-60
2023/01/07 00:02:59;;;;;;;1.13;0.60;;;;;;;;;;520730;28;1444;-60
2023/01/07 00:03:17;;;;;;;1.58;0.60;;;;;;;;;;519796;28;1464;-59
2023/01/07 00:03:33;;;;;;;1.75;0.70;;;;;;;;;;520693;28;1035;-60
2023/01/07 00:03:50;;;;;;;1.35;0.68;;;;;;;;;;520262;28;1242;-60
2023/01/07 00:04:09;;;;;;;1.50;0.70;;;;;;;;;;521393;28;1142;-60
2023/01/07 00:04:24;;;;;;;1.60;0.70;;;;;;;;;;522718;28;1118;-60
2023/01/07 00:04:39;;;;;;;1.10;0.70;;;;;;;;;;526254;28;1136;-60
2023/01/07 00:04:55;;;;;;;2.10;0.87;;;;;;;;;;524649;28;1359;-60
2023/01/07 00:05:10;;;;;;;2.08;0.82;;;;;;;;;;526636;28;1275;-60
2023/01/07 00:05:25;;;;;;;1.30;0.70;;;;;;;;;;524016;28;1295;-60
2023/01/07 00:05:42;;;;;;;1.20;0.70;;;;;;;;;;523547;28;1285;-60
2023/01/07 00:06:13;;;;;;;0.77;0.68;;;;;;;;;;522900;28;1456;-60
2023/01/07 00:06:34;;;;;;;1.10;0.60;;;;;;;;;;521572;28;1305;-60
2023/01/07 00:06:51;;;;;;;2.15;0.60;;;;;;;;;;522136;28;1513;-60
2023/01/07 00:07:06;;;;;;;1.33;0.75;;;;;;;;;;522584;28;1649;-60
2023/01/07 00:07:22;;;;;;;1.80;0.97;;;;;;;;;;522976;28;1098;-59
2023/01/07 00:07:37;;;;;;;1.60;0.80;;;;;;;;;;523199;28;1445;-59
2023/01/07 00:07:52;;;;;;;1.30;0.70;;;;;;;;;;524475;28;1169;-59
2023/01/07 00:08:08;;;;;;;1.40;0.63;;;;;;;;;;524897;28;1145;-60
2023/01/07 00:08:23;;;;;;;1.48;0.60;;;;;;;;;;522162;28;1351;-60
2023/01/07 00:08:43;;;;;;;1.20;0.60;;;;;;;;;;523969;28;1305;-60
2023/01/07 00:08:59;;;;;;;1.45;0.70;;;;;;;;;;524269;28;1114;-60
2023/01/07 00:09:15;;;;;;;1.38;0.77;;;;;;;;;;524260;28;1149;-60
2023/01/07 00:09:30;;;;;;;1.20;0.80;;;;;;;;;;523309;28;1149;-60
2023/01/07 00:09:46;;;;;;;1.17;0.80;;;;;;;;;;525827;28;1042;-60
2023/01/07 00:10:01;;;;;;;1.10;0.80;;;;;;;;;;526465;28;1184;-60
2023/01/07 00:10:16;;;;;;;1.30;0.80;;;;;;;;;;525496;28;1034;-60
2023/01/07 00:10:33;;;;;;;1.20;0.70;;;;;;;;;;528438;27;1631;-60
2023/01/07 00:10:48;;;;;;;1.10;0.70;;;;;;;;;;530740;27;1278;-60
2023/01/07 00:11:06;;;;;;;1.20;0.70;;;;;;;;;;527668;27;1302;-60
2023/01/07 00:11:28;;;;;;;1.10;0.70;;;;;;;;;;527304;28;1232;-60
2023/01/07 00:11:44;;;;;;;0.93;0.80;;;;;;;;;;526653;28;1011;-60
2023/01/07 00:11:59;;;;;;;1.45;0.80;;;;;;;;;;527970;28;1160;-60
2023/01/07 00:12:14;;;;;;;1.37;0.70;;;;;;;;;;526776;27;1433;-60
2023/01/07 00:12:29;;;;;;;1.20;0.70;;;;;;;;;;525235;28;1164;-59
2023/01/07 00:12:45;;;;;;;1.15;0.73;;;;;;;;;;524831;28;1379;-60
2023/01/07 00:13:01;;;;;;;0.90;0.70;;;;;;;;;;524609;28;1379;-60
2023/01/07 00:13:16;;;;;;;1.00;0.77;;;;;;;;;;523366;28;1302;-60
2023/01/07 00:13:32;;;;;;;1.57;0.70;;;;;;;;;;520645;28;1443;-60
2023/01/07 00:13:49;;;;;;;1.75;0.70;;;;;;;;;;520967;28;1908;-60
2023/01/07 00:14:07;;;;;;;0.88;0.60;;;;;;;;;;521434;28;1130;-60
2023/01/07 00:14:22;;;;;;;0.55;0.55;;;;;;;;;;520999;28;1437;-60
2023/01/07 00:14:38;;;;;;;1.10;0.70;;;;;;;;;;521418;28;1279;-60
2023/01/07 00:14:53;;;;;;;1.60;0.90;;;;;;;;;;520332;28;1434;-59
2023/01/07 00:15:09;;;;;;;1.27;0.77;;;;;;;;;;521683;28;1365;-60
2023/01/07 00:15:24;;;;;;;0.90;0.70;;;;;;;;;;522076;28;1436;-60
2023/01/07 00:15:40;;;;;;;1.00;0.80;;;;;;;;;;523163;28;1292;-60
2023/01/07 00:16:00;;;;;;;1.10;0.70;;;;;;;;;;522833;28;1244;-60
2023/01/07 00:16:18;;;;;;;1.10;0.60;;;;;;;;;;518895;28;1565;-60
2023/01/07 00:16:34;;;;;;;1.60;0.63;;;;;;;;;;521131;28;1027;-60
2023/01/07 00:16:50;;;;;;;1.60;0.63;;;;;;;;;;524234;28;1199;-60
2023/01/07 00:17:05;;;;;;;1.58;0.68;;;;;;;;;;524074;28;1569;-60
2023/01/07 00:17:21;;;;;;;1.20;0.70;;;;;;;;;;522182;28;1211;-61
2023/01/07 00:17:36;;;;;;;1.00;0.70;;;;;;;;;;523879;28;1149;-60
2023/01/07 00:17:51;;;;;;;1.10;0.70;;;;;;;;;;522736;28;1173;-60
2023/01/07 00:18:07;;;;;;;1.40;0.70;;;;;;;;;;523843;28;1298;-60
2023/01/07 00:18:22;;;;;;;1.17;0.70;;;;;;;;;;523486;28;1298;-61
2023/01/07 00:18:38;;;;;;;1.03;0.60;;;;;;;;;;523055;28;1110;-61
2023/01/07 00:18:56;;;;;;;1.15;0.60;;;;;;;;;;521882;28;1845;-60
2023/01/07 00:19:14;;;;;;;1.00;0.70;;;;;;;;;;525403;28;1156;-60
2023/01/07 00:19:29;;;;;;;1.55;0.80;;;;;;;;;;524847;28;1174;-60
2023/01/07 00:19:44;;;;;;;1.70;0.73;;;;;;;;;;522827;28;1470;-61
2023/01/07 00:20:00;;;;;;;1.27;0.73;;;;;;;;;;523575;28;1208;-61
2023/01/07 00:20:15;;;;;;;1.13;0.70;;;;;;;;;;523711;28;2061;-60
2023/01/07 00:20:30;;;;;;;1.13;0.70;;;;;;;;;;524358;28;1592;-61
2023/01/07 00:20:46;;;;;;;1.70;0.73;;;;;;;;;;525537;28;1226;-61
2023/01/07 00:21:04;;;;;;;1.40;0.70;;;;;;;;;;526417;28;1116;-60
2023/01/07 00:21:21;;;;;;;1.15;0.80;;;;;;;;;;525711;28;1029;-61
2023/01/07 00:21:36;;;;;;;1.33;0.80;;;;;;;;;;523989;28;1613;-61
2023/01/07 00:21:52;;;;;;;1.20;0.70;;;;;;;;;;520804;28;1575;-61
2023/01/07 00:22:07;;;;;;;1.50;0.70;;;;;;;;;;522272;28;1194;-61
2023/01/07 00:22:23;;;;;;;1.70;0.90;;;;;;;;;;523322;28;1562;-60
2023/01/07 00:22:38;;;;;;;1.93;0.80;;;;;;;;;;520029;28;1175;-60
2023/01/07 00:22:53;;;;;;;1.98;0.70;;;;;;;;;;522144;28;1200;-61
2023/01/07 00:23:09;;;;;;;1.40;0.70;;;;;;;;;;521837;28;1058;-60
2023/01/07 00:23:25;;;;;;;1.07;0.60;;;;;;;;;;523933;28;1162;-60
2023/01/07 00:23:42;;;;;;;1.38;0.60;;;;;;;;;;525265;28;982;-61
2023/01/07 00:24:00;;;;;;;1.65;0.80;;;;;;;;;;524581;28;1687;-61
2023/01/07 00:24:15;;;;;;;1.00;0.70;;;;;;;;;;525682;28;1255;-60
2023/01/07 00:24:31;;;;;;;1.10;0.70;;;;;;;;;;525804;28;1453;-61
2023/01/07 00:24:46;;;;;;;1.17;0.70;;;;;;;;;;523938;28;1217;-60
2023/01/07 00:25:02;;;;;;;1.05;0.70;;;;;;;;;;519535;28;1480;-60
2023/01/07 00:25:17;;;;;;;0.97;0.70;;;;;;;;;;521731;28;1069;-61
2023/01/07 00:25:32;;;;;;;0.95;0.70;;;;;;;;;;521499;28;1898;-62
2023/01/07 00:25:48;;;;;;;1.00;0.70;;;;;;;;;;522553;28;1333;-60
2023/01/07 00:26:06;;;;;;;1.10;0.60;;;;;;;;;;520758;28;1366;-60
2023/01/07 00:26:24;;;;;;;1.17;0.70;;;;;;;;;;521888;28;1061;-60
2023/01/07 00:26:40;;;;;;;1.48;0.73;;;;;;;;;;520287;28;1513;-61
2023/01/07 00:26:55;;;;;;;1.23;0.63;;;;;;;;;;521576;28;1491;-61
2023/01/07 00:27:10;;;;;;;1.38;0.63;;;;;;;;;;520820;28;1772;-60
2023/01/07 00:27:25;;;;;;;1.40;0.60;;;;;;;;;;519591;28;1512;-60
2023/01/07 00:27:41;;;;;;;0.80;0.53;;;;;;;;;;520306;28;1682;-60
2023/01/07 00:27:56;;;;;;;0.85;0.50;;;;;;;;;;522714;28;1165;-60
2023/01/07 00:28:11;;;;;;;1.00;0.60;;;;;;;;;;523501;28;1166;-61
2023/01/07 00:28:26;;;;;;;1.00;0.70;;;;;;;;;;522006;28;1078;-60
2023/01/07 00:28:44;;;;;;;1.03;0.73;;;;;;;;;;526050;28;1561;-60
2023/01/07 00:28:59;;;;;;;1.15;0.80;;;;;;;;;;524334;28;1519;-60
2023/01/07 00:29:15;;;;;;;1.40;0.80;;;;;;;;;;522813;28;1291;-61
2023/01/07 00:29:31;;;;;;;2.20;0.82;;;;;;;;;;523147;28;1352;-61
2023/01/07 00:29:46;;;;;;;2.22;0.90;;;;;;;;;;525892;28;1077;-61
2023/01/07 00:30:01;;;;;;;1.13;0.77;;;;;;;;;;523477;28;1568;-61
2023/01/07 00:30:17;;;;;;;0.80;0.60;;;;;;;;;;522345;28;1199;-61
2023/01/07 00:30:32;;;;;;;0.80;0.65;;;;;;;;;;522738;28;1781;-60
2023/01/07 00:30:47;;;;;;;1.20;0.70;;;;;;;;;;523352;28;1402;-60
2023/01/07 00:31:09;;;;;;;1.27;0.70;;;;;;;;;;524006;28;1261;-60
2023/01/07 00:31:33;;;;;;;0.88;0.65;;;;;;;;;;521899;28;1287;-61
2023/01/07 00:31:48;;;;;;;1.40;0.63;;;;;;;;;;522619;28;1050;-60
2023/01/07 00:32:04;;;;;;;2.00;0.70;;;;;;;;;;523686;28;2783;-61
2023/01/07 00:32:19;;;;;;;1.27;0.70;;;;;;;;;;523922;28;1606;-60
2023/01/07 00:33:03;;;;;;;0.85;0.60;;;;;;;;;;523336;28;1345;-61
2023/01/07 00:33:20;;;;;;;0.90;0.60;;;;;;;;;;522590;28;1305;-61
2023/01/07 00:33:43;;;;;;;1.13;0.65;;;;;;;;;;523036;28;972;-61
2023/01/07 00:34:15;;;;;;;1.43;0.80;;;;;;;;;;525693;28;1108;-60
2023/01/07 00:34:31;;;;;;;0.93;0.77;;;;;;;;;;525677;28;1032;-60
2023/01/07 00:34:46;;;;;;;1.20;0.70;;;;;;;;;;526120;28;1141;-60
2023/01/07 00:35:03;;;;;;;1.20;0.60;;;;;;;;;;522585;28;1046;-60
2023/01/07 00:35:24;;;;;;;1.17;0.68;;;;;;;;;;528345;27;985;-60
2023/01/07 00:35:40;;;;;;;1.52;0.57;;;;;;;;;;525100;28;1392;-61
2023/01/07 00:36:08;;;;;;;1.83;0.60;;;;;;;;;;527538;27;1242;-60
2023/01/07 00:36:26;;;;;;;1.17;0.70;;;;;;;;;;527077;27;1532;-60
2023/01/07 00:36:44;;;;;;;0.88;0.70;;;;;;;;;;528574;27;1120;-60
2023/01/07 00:37:48;;;;;;;0.88;0.65;;;;;;;;;;527324;27;1077;-61
2023/01/07 00:37:50;;;;;;;1.20;0.70;;;;;;;;;;526744;27;1067;-60
2023/01/07 00:38:05;;;;;;;1.23;0.60;;;;;;;;;;528334;27;961;-61
2023/01/07 00:38:21;;;;;;;0.85;0.70;;;;;;;;;;527568;27;1229;-60
2023/01/07 00:38:36;;;;;;;1.03;0.67;;;;;;;;;;527505;27;1287;-61
2023/01/07 00:38:56;;;;;;;1.33;0.60;;;;;;;;;;527764;27;1615;-60
2023/01/07 00:39:18;;;;;;;0.98;0.60;;;;;;;;;;524968;28;1105;-60
2023/01/07 00:39:33;;;;;;;0.73;0.63;;;;;;;;;;525308;28;1070;-60
2023/01/07 00:39:49;;;;;;;0.73;0.60;;;;;;;;;;525726;28;1282;-60
2023/01/07 00:40:05;;;;;;;1.20;0.60;;;;;;;;;;525736;28;1204;-61
2023/01/07 00:40:21;;;;;;;1.75;0.60;;;;;;;;;;526418;27;1977;-60
2023/01/07 00:40:36;;;;;;;1.40;0.50;;;;;;;;;;527657;27;1280;-60
2023/01/07 00:40:51;;;;;;;1.30;0.50;;;;;;;;;;528017;27;1129;-61
2023/01/07 00:41:08;;;;;;;1.37;0.60;;;;;;;;;;526508;28;1658;-60
2023/01/07 00:41:24;;;;;;;1.10;0.70;;;;;;;;;;524147;28;1328;-61
2023/01/07 00:42:53;;;;;;;1.20;0.60;;;;;;;;;;523673;28;1308;-61
2023/01/07 00:43:03;;;;;;;1.00;0.70;;;;;;;;;;524958;28;1057;-60
2023/01/07 00:43:19;;;;;;;0.57;0.50;;;;;;;;;;526306;27;1045;-60
2023/01/07 00:43:34;;;;;;;0.60;0.57;;;;;;;;;;529536;27;1151;-60
2023/01/07 00:43:50;;;;;;;0.75;0.70;;;;;;;;;;529704;27;1001;-60
2023/01/07 00:44:06;;;;;;;1.20;0.70;;;;;;;;;;529989;27;1162;-60
2023/01/07 00:44:21;;;;;;;1.17;0.80;;;;;;;;;;527854;27;1997;-61
2023/01/07 00:44:37;;;;;;;1.10;0.70;;;;;;;;;;526853;27;1291;-61
2023/01/07 00:44:52;;;;;;;1.37;0.67;;;;;;;;;;528801;27;1188;-61
2023/01/07 00:45:09;;;;;;;1.23;0.70;;;;;;;;;;528862;27;1171;-60
2023/01/07 00:45:24;;;;;;;1.10;0.70;;;;;;;;;;527231;27;1580;-60
2023/01/07 00:45:40;;;;;;;1.27;0.70;;;;;;;;;;527985;27;1381;-61
2023/01/07 00:45:55;;;;;;;1.30;0.70;;;;;;;;;;527845;27;1113;-60
2023/01/07 00:46:13;;;;;;;1.63;0.60;;;;;;;;;;527386;27;1173;-60
2023/01/07 00:46:29;;;;;;;1.60;0.70;;;;;;;;;;527198;27;1232;-60
2023/01/07 00:46:44;;;;;;;1.73;0.73;;;;;;;;;;527042;27;1440;-60
2023/01/07 00:47:00;;;;;;;1.77;0.73;;;;;;;;;;527722;27;1619;-60
2023/01/07 00:47:15;;;;;;;1.00;0.70;;;;;;;;;;527700;27;1411;-60
2023/01/07 00:47:30;;;;;;;1.20;0.70;;;;;;;;;;525960;28;1307;-61
2023/01/07 00:47:46;;;;;;;1.33;0.70;;;;;;;;;;523720;28;1236;-61
2023/01/07 00:48:03;;;;;;;0.98;0.60;;;;;;;;;;521990;28;1440;-60
2023/01/07 00:48:22;;;;;;;0.93;0.57;;;;;;;;;;523650;28;1193;-60
2023/01/07 00:48:37;;;;;;;1.08;0.60;;;;;;;;;;522865;28;1125;-58
2023/01/07 00:48:53;;;;;;;1.07;0.60;;;;;;;;;;524022;28;1733;-60
2023/01/07 00:49:08;;;;;;;1.15;0.57;;;;;;;;;;525086;28;1376;-60
2023/01/07 00:49:24;;;;;;;1.17;0.50;;;;;;;;;;526616;27;1108;-60
2023/01/07 00:49:42;;;;;;;1.25;0.60;;;;;;;;;;528323;27;1089;-60
2023/01/07 00:49:58;;;;;;;1.45;0.65;;;;;;;;;;527360;27;1128;-60
2023/01/07 00:50:13;;;;;;;1.40;0.77;;;;;;;;;;528225;27;1054;-60
2023/01/07 00:50:33;;;;;;;1.17;0.70;;;;;;;;;;528308;27;1478;-60
2023/01/07 00:50:50;;;;;;;1.02;0.60;;;;;;;;;;526798;27;1196;-60
2023/01/07 00:51:16;;;;;;;1.00;0.60;;;;;;;;;;530050;27;1092;-60
2023/01/07 00:51:31;;;;;;;1.08;0.63;;;;;;;;;;527453;27;1780;-60
2023/01/07 00:51:47;;;;;;;1.10;0.60;;;;;;;;;;527531;27;1196;-60
2023/01/07 00:52:02;;;;;;;1.13;0.60;;;;;;;;;;527150;27;1560;-60
2023/01/07 00:52:17;;;;;;;1.40;0.60;;;;;;;;;;528463;27;1095;-60
2023/01/07 00:52:33;;;;;;;1.23;0.63;;;;;;;;;;525563;28;1171;-60
2023/01/07 00:52:48;;;;;;;0.98;0.63;;;;;;;;;;526300;28;1263;-60
2023/01/07 00:53:04;;;;;;;1.40;0.70;;;;;;;;;;526005;28;1183;-60
2023/01/07 00:53:20;;;;;;;1.17;0.70;;;;;;;;;;522669;28;1286;-60
2023/01/07 00:53:35;;;;;;;1.33;0.65;;;;;;;;;;521990;28;1321;-60
2023/01/07 00:53:50;;;;;;;2.00;0.70;;;;;;;;;;521328;28;1758;-61
2023/01/07 00:54:05;;;;;;;1.30;0.70;;;;;;;;;;521456;28;1440;-62
2023/01/07 00:54:22;;;;;;;0.68;0.63;;;;;;;;;;521150;28;1194;-60
2023/01/07 00:54:37;;;;;;;0.90;0.65;;;;;;;;;;520824;28;1154;-60
2023/01/07 00:54:53;;;;;;;1.10;0.60;;;;;;;;;;524112;28;1142;-60
2023/01/07 00:55:09;;;;;;;1.20;0.60;;;;;;;;;;523306;28;1057;-60
2023/01/07 00:55:25;;;;;;;0.80;0.52;;;;;;;;;;526286;28;1561;-60
2023/01/07 00:55:41;;;;;;;0.90;0.60;;;;;;;;;;526224;27;1200;-60
2023/01/07 00:55:56;;;;;;;1.40;0.70;;;;;;;;;;525937;28;1360;-60
2023/01/07 00:56:13;;;;;;;1.17;0.70;;;;;;;;;;527920;27;1165;-61
2023/01/07 00:56:28;;;;;;;0.90;0.70;;;;;;;;;;526154;27;1325;-60
2023/01/07 00:56:44;;;;;;;0.88;0.70;;;;;;;;;;527261;27;1188;-60
2023/01/07 00:56:59;;;;;;;0.80;0.60;;;;;;;;;;527858;27;1575;-61
2023/01/07 00:57:14;;;;;;;1.00;0.60;;;;;;;;;;528180;27;1184;-60
2023/01/07 00:57:30;;;;;;;0.97;0.70;;;;;;;;;;526404;28;1245;-60
2023/01/07 00:57:45;;;;;;;0.80;0.70;;;;;;;;;;525935;27;1240;-60
2023/01/07 00:58:00;;;;;;;0.90;0.60;;;;;;;;;;527035;27;1128;-60
2023/01/07 00:58:19;;;;;;;1.33;0.70;;;;;;;;;;528139;27;1116;-60
2023/01/07 00:58:34;;;;;;;1.42;0.70;;;;;;;;;;528056;27;1026;-60
2023/01/07 00:58:50;;;;;;;1.20;0.63;;;;;;;;;;526562;27;1532;-60
2023/01/07 00:59:05;;;;;;;1.27;0.65;;;;;;;;;;528269;27;1226;-60
2023/01/07 00:59:20;;;;;;;1.80;0.67;;;;;;;;;;527582;27;1281;-60
2023/01/07 00:59:35;;;;;;;1.55;0.65;;;;;;;;;;525979;27;1191;-60
2023/01/07 00:59:51;;;;;;;0.97;0.70;;;;;;;;;;526142;28;1348;-60
2023/01/07 01:00:08;;;;;;;0.80;0.70;;;;;;;;;;526097;28;1168;-59
2023/01/07 01:00:26;;;;;;;1.00;0.60;;;;;;;;;;526057;27;1902;-60
2023/01/07 01:00:41;;;;;;;1.42;0.70;;;;;;;;;;525867;28;1100;-60
2023/01/07 01:00:59;;;;;;;0.90;0.70;;;;;;;;;;523996;28;1287;-60
2023/01/07 01:01:14;;;;;;;0.75;0.65;;;;;;;;;;525585;27;1380;-60
2023/01/07 01:01:30;;;;;;;0.70;0.60;;;;;;;;;;527000;27;1387;-60
2023/01/07 01:01:45;;;;;;;1.07;0.60;;;;;;;;;;528471;27;1255;-60
2023/01/07 01:02:00;;;;;;;1.20;0.60;;;;;;;;;;528069;27;1816;-61
2023/01/07 01:02:16;;;;;;;1.20;0.60;;;;;;;;;;527466;27;1232;-60
2023/01/07 01:02:31;;;;;;;1.20;0.60;;;;;;;;;;525210;28;1217;-60
2023/01/07 01:02:47;;;;;;;1.13;0.70;;;;;;;;;;523760;28;1198;-60
2023/01/07 01:03:03;;;;;;;1.30;0.60;;;;;;;;;;523810;28;1544;-59
2023/01/07 01:03:18;;;;;;;1.37;0.60;;;;;;;;;;522699;28;1447;-60
2023/01/07 01:03:33;;;;;;;1.50;0.70;;;;;;;;;;524212;28;1322;-61
2023/01/07 01:03:49;;;;;;;2.00;0.80;;;;;;;;;;522512;28;1924;-60
2023/01/07 01:04:05;;;;;;;2.30;0.80;;;;;;;;;;523875;28;1114;-61
2023/01/07 01:04:20;;;;;;;1.52;0.77;;;;;;;;;;523573;28;1275;-60
2023/01/07 01:04:35;;;;;;;0.80;0.60;;;;;;;;;;523794;28;1450;-60
2023/01/07 01:04:51;;;;;;;0.60;0.47;;;;;;;;;;526441;28;1164;-60
2023/01/07 01:05:07;;;;;;;1.10;0.60;;;;;;;;;;523266;28;1241;-60
2023/01/07 01:05:22;;;;;;;1.33;0.65;;;;;;;;;;524394;28;1222;-60
2023/01/07 01:05:41;;;;;;;1.07;0.60;;;;;;;;;;524646;28;1357;-60
2023/01/07 01:06:05;;;;;;;1.40;0.60;;;;;;;;;;525220;28;1209;-60
2023/01/07 01:06:20;;;;;;;1.02;0.70;;;;;;;;;;524626;28;1219;-59
2023/01/07 01:06:35;;;;;;;0.95;0.52;;;;;;;;;;523851;28;1417;-60
2023/01/07 01:06:51;;;;;;;0.70;0.50;;;;;;;;;;522122;28;1137;-60
2023/01/07 01:07:06;;;;;;;0.88;0.60;;;;;;;;;;522061;28;1310;-60
2023/01/07 01:07:22;;;;;;;1.50;0.80;;;;;;;;;;519693;28;1281;-60
2023/01/07 01:07:37;;;;;;;1.40;0.77;;;;;;;;;;523343;28;1125;-60
2023/01/07 01:07:53;;;;;;;1.20;0.60;;;;;;;;;;523335;28;1164;-60
2023/01/07 01:08:09;;;;;;;1.50;0.60;;;;;;;;;;521394;28;1212;-60
2023/01/07 01:08:24;;;;;;;1.30;0.70;;;;;;;;;;520760;28;995;-60
2023/01/07 01:08:42;;;;;;;1.20;0.70;;;;;;;;;;524641;28;1756;-60
2023/01/07 01:08:57;;;;;;;1.85;0.70;;;;;;;;;;526020;28;1095;-60
2023/01/07 01:09:12;;;;;;;1.70;0.60;;;;;;;;;;523750;28;1521;-60
2023/01/07 01:09:28;;;;;;;1.20;0.60;;;;;;;;;;520331;28;1207;-60
2023/01/07 01:09:43;;;;;;;1.20;0.70;;;;;;;;;;521095;28;1195;-60
2023/01/07 01:09:59;;;;;;;0.80;0.60;;;;;;;;;;522119;28;1240;-60
2023/01/07 01:10:17;;;;;;;0.90;0.53;;;;;;;;;;522067;28;1133;-60
2023/01/07 01:10:32;;;;;;;0.90;0.60;;;;;;;;;;521097;28;2670;-59
2023/01/07 01:10:47;;;;;;;1.10;0.60;;;;;;;;;;518994;28;1905;-59
2023/01/07 01:11:05;;;;;;;1.47;0.70;;;;;;;;;;521375;28;1181;-60
2023/01/07 01:11:20;;;;;;;1.35;0.68;;;;;;;;;;521943;28;1483;-60
2023/01/07 01:11:36;;;;;;;1.20;0.60;;;;;;;;;;521225;28;1362;-60
2023/01/07 01:11:51;;;;;;;1.13;0.60;;;;;;;;;;520494;28;1418;-61
2023/01/07 01:12:06;;;;;;;0.90;0.53;;;;;;;;;;521500;28;1369;-60
2023/01/07 01:12:22;;;;;;;0.67;0.50;;;;;;;;;;521703;28;1465;-59
2023/01/07 01:12:37;;;;;;;0.70;0.45;;;;;;;;;;519697;28;1212;-60
2023/01/07 01:12:56;;;;;;;0.93;0.60;;;;;;;;;;518443;28;1297;-60
2023/01/07 01:13:13;;;;;;;0.77;0.65;;;;;;;;;;518391;28;1430;-60
2023/01/07 01:13:28;;;;;;;1.00;0.70;;;;;;;;;;520341;28;1370;-60
2023/01/07 01:13:44;;;;;;;0.87;0.60;;;;;;;;;;520722;28;1493;-60
2023/01/07 01:14:00;;;;;;;0.90;0.50;;;;;;;;;;520878;28;1374;-60
2023/01/07 01:14:15;;;;;;;1.23;0.60;;;;;;;;;;520783;28;1184;-60
2023/01/07 01:14:31;;;;;;;1.13;0.63;;;;;;;;;;522391;28;1070;-60
2023/01/07 01:14:46;;;;;;;0.80;0.60;;;;;;;;;;523013;28;1114;-60
2023/01/07 01:15:07;;;;;;;0.80;0.60;;;;;;;;;;522435;28;1143;-60
2023/01/07 01:15:23;;;;;;;1.10;0.60;;;;;;;;;;524837;27;1756;-60
2023/01/07 01:15:45;;;;;;;0.93;0.60;;;;;;;;;;523841;28;1524;-60
2023/01/07 01:16:00;;;;;;;0.75;0.50;;;;;;;;;;525623;28;1145;-60
2023/01/07 01:16:17;;;;;;;1.10;0.60;;;;;;;;;;522496;28;1414;-60
2023/01/07 01:16:32;;;;;;;1.50;0.60;;;;;;;;;;524098;28;1200;-60
2023/01/07 01:16:48;;;;;;;1.63;0.60;;;;;;;;;;524878;28;1168;-60
2023/01/07 01:17:03;;;;;;;1.17;0.57;;;;;;;;;;526015;27;1642;-60
2023/01/07 01:17:19;;;;;;;0.87;0.50;;;;;;;;;;527080;27;1132;-60
2023/01/07 01:17:35;;;;;;;1.20;0.60;;;;;;;;;;528903;27;1285;-60
2023/01/07 01:17:51;;;;;;;1.80;0.60;;;;;;;;;;525584;27;1288;-60
2023/01/07 01:18:06;;;;;;;1.35;0.68;;;;;;;;;;527663;27;1219;-60
2023/01/07 01:18:21;;;;;;;0.90;0.60;;;;;;;;;;527322;27;1259;-60
2023/01/07 01:18:37;;;;;;;1.02;0.60;;;;;;;;;;526953;27;1606;-60
2023/01/07 01:18:53;;;;;;;0.97;0.60;;;;;;;;;;527965;27;1559;-60
2023/01/07 01:19:08;;;;;;;0.85;0.50;;;;;;;;;;528786;27;1156;-60
2023/01/07 01:19:23;;;;;;;1.63;0.60;;;;;;;;;;528277;27;1140;-60
2023/01/07 01:19:42;;;;;;;2.07;0.60;;;;;;;;;;527092;27;970;-60
2023/01/07 01:19:57;;;;;;;1.42;0.50;;;;;;;;;;525660;28;1444;-60
2023/01/07 01:20:14;;;;;;;0.80;0.50;;;;;;;;;;526434;28;1042;-60
2023/01/07 01:20:29;;;;;;;1.10;0.60;;;;;;;;;;526731;27;1595;-62
2023/01/07 01:20:48;;;;;;;1.00;0.60;;;;;;;;;;526346;28;1299;-60
2023/01/07 01:21:05;;;;;;;0.75;0.50;;;;;;;;;;522517;28;1464;-60
2023/01/07 01:21:20;;;;;;;0.82;0.50;;;;;;;;;;521184;28;1277;-60
2023/01/07 01:21:35;;;;;;;1.43;0.60;;;;;;;;;;521554;28;1225;-59
2023/01/07 01:21:51;;;;;;;1.20;0.57;;;;;;;;;;520206;28;1321;-60
2023/01/07 01:22:07;;;;;;;0.93;0.50;;;;;;;;;;519941;28;1591;-60
2023/01/07 01:22:22;;;;;;;1.30;0.60;;;;;;;;;;518104;28;1270;-59
2023/01/07 01:22:37;;;;;;;1.13;0.50;;;;;;;;;;516553;28;1083;-60
2023/01/07 01:22:53;;;;;;;0.70;0.47;;;;;;;;;;520463;28;1351;-60
2023/01/07 01:23:08;;;;;;;0.77;0.57;;;;;;;;;;522974;28;1132;-60
2023/01/07 01:23:23;;;;;;;1.67;0.63;;;;;;;;;;523142;28;1205;-60
2023/01/07 01:23:39;;;;;;;1.75;0.60;;;;;;;;;;520714;28;1368;-59
2023/01/07 01:23:54;;;;;;;0.77;0.60;;;;;;;;;;520836;28;1465;-61
2023/01/07 01:24:10;;;;;;;0.70;0.50;;;;;;;;;;523133;28;1215;-60
2023/01/07 01:24:25;;;;;;;1.17;0.50;;;;;;;;;;520537;28;1112;-60
2023/01/07 01:24:40;;;;;;;1.37;0.60;;;;;;;;;;523056;28;1139;-60
2023/01/07 01:24:56;;;;;;;1.05;0.50;;;;;;;;;;524040;28;1185;-60
2023/01/07 01:25:12;;;;;;;0.97;0.47;;;;;;;;;;519094;28;1264;-60
2023/01/07 01:25:27;;;;;;;1.75;0.55;;;;;;;;;;524114;28;1989;-60
2023/01/07 01:25:42;;;;;;;2.08;0.70;;;;;;;;;;524213;28;1491;-59
2023/01/07 01:26:05;;;;;;;1.27;0.67;;;;;;;;;;522893;28;1436;-60
2023/01/07 01:26:20;;;;;;;1.25;0.50;;;;;;;;;;523534;28;1181;-60
2023/01/07 01:26:35;;;;;;;1.58;0.63;;;;;;;;;;522404;28;1307;-61
2023/01/07 01:26:51;;;;;;;1.50;0.60;;;;;;;;;;522832;28;1290;-60
2023/01/07 01:27:06;;;;;;;1.60;0.60;;;;;;;;;;523609;28;1850;-60
2023/01/07 01:27:21;;;;;;;0.80;0.60;;;;;;;;;;525961;28;1090;-59
2023/01/07 01:27:37;;;;;;;0.67;0.60;;;;;;;;;;525987;28;1215;-60
2023/01/07 01:27:52;;;;;;;1.08;0.60;;;;;;;;;;528224;27;1164;-60
2023/01/07 01:28:08;;;;;;;1.53;0.60;;;;;;;;;;528239;27;1208;-60
2023/01/07 01:28:23;;;;;;;1.50;0.60;;;;;;;;;;526429;27;1026;-60
2023/01/07 01:28:40;;;;;;;1.10;0.60;;;;;;;;;;528094;27;1226;-60
2023/01/07 01:28:55;;;;;;;0.85;0.60;;;;;;;;;;527450;27;1085;-60
2023/01/07 01:29:10;;;;;;;0.90;0.60;;;;;;;;;;528269;27;1077;-62
2023/01/07 01:29:26;;;;;;;1.00;0.60;;;;;;;;;;524876;28;1316;-60
2023/01/07 01:29:41;;;;;;;1.10;0.60;;;;;;;;;;526316;28;1340;-60
2023/01/07 01:29:57;;;;;;;1.38;0.70;;;;;;;;;;525153;28;1102;-60
2023/01/07 01:30:12;;;;;;;1.05;0.68;;;;;;;;;;525463;28;1362;-60
2023/01/07 01:30:28;;;;;;;0.67;0.47;;;;;;;;;;525477;27;1201;-60
2023/01/07 01:30:43;;;;;;;0.97;0.40;;;;;;;;;;525972;27;1261;-60
2023/01/07 01:30:58;;;;;;;1.15;0.50;;;;;;;;;;527477;27;1356;-59
2023/01/07 01:31:14;;;;;;;1.93;0.63;;;;;;;;;;527829;27;1398;-60
2023/01/07 01:31:29;;;;;;;2.10;0.63;;;;;;;;;;525198;28;1359;-60
2023/01/07 01:31:44;;;;;;;1.30;0.60;;;;;;;;;;525061;28;1059;-59
2023/01/07 01:32:00;;;;;;;0.73;0.60;;;;;;;;;;525019;28;1641;-59
2023/01/07 01:32:15;;;;;;;0.90;0.60;;;;;;;;;;524806;28;1117;-59
2023/01/07 01:32:30;;;;;;;1.38;0.70;;;;;;;;;;525358;28;1212;-60
2023/01/07 01:32:46;;;;;;;1.30;0.50;;;;;;;;;;525602;28;1107;-60
2023/01/07 01:33:01;;;;;;;1.00;0.50;;;;;;;;;;525761;28;1267;-60
2023/01/07 01:33:16;;;;;;;0.93;0.60;;;;;;;;;;523869;28;1228;-59
2023/01/07 01:33:31;;;;;;;0.90;0.50;;;;;;;;;;526015;27;1085;-61
2023/01/07 01:33:47;;;;;;;0.97;0.53;;;;;;;;;;527287;27;1830;-60
2023/01/07 01:34:02;;;;;;;1.00;0.60;;;;;;;;;;527158;27;1140;-60
2023/01/07 01:34:18;;;;;;;1.33;0.60;;;;;;;;;;525925;27;1095;-60
2023/01/07 01:34:33;;;;;;;1.23;0.50;;;;;;;;;;523702;28;1310;-60
2023/01/07 01:34:48;;;;;;;1.23;0.60;;;;;;;;;;526655;28;1249;-60
2023/01/07 01:35:04;;;;;;;1.00;0.60;;;;;;;;;;528321;27;1245;-59
2023/01/07 01:35:19;;;;;;;0.63;0.60;;;;;;;;;;527853;27;1073;-59
2023/01/07 01:35:39;;;;;;;0.73;0.60;;;;;;;;;;527978;27;1349;-60
2023/01/07 01:35:54;;;;;;;1.00;0.70;;;;;;;;;;527156;27;1420;-60
2023/01/07 01:36:11;;;;;;;0.77;0.53;;;;;;;;;;526606;27;1500;-60
2023/01/07 01:36:27;;;;;;;0.88;0.50;;;;;;;;;;525282;28;1669;-60
2023/01/07 01:36:42;;;;;;;1.00;0.50;;;;;;;;;;523568;28;1309;-60
2023/01/07 01:36:57;;;;;;;0.90;0.50;;;;;;;;;;525218;28;1188;-60
2023/01/07 01:37:13;;;;;;;0.73;0.40;;;;;;;;;;526308;28;1913;-60
2023/01/07 01:37:28;;;;;;;1.00;0.50;;;;;;;;;;525499;28;1348;-60
2023/01/07 01:37:43;;;;;;;1.23;0.60;;;;;;;;;;524549;28;1241;-60
2023/01/07 01:37:59;;;;;;;0.90;0.60;;;;;;;;;;522247;28;1416;-60
2023/01/07 01:38:14;;;;;;;1.13;0.50;;;;;;;;;;524092;28;1066;-60
2023/01/07 01:38:30;;;;;;;1.40;0.60;;;;;;;;;;526169;28;1054;-60
2023/01/07 01:38:45;;;;;;;1.80;0.60;;;;;;;;;;527516;27;1474;-60
2023/01/07 01:39:00;;;;;;;1.47;0.60;;;;;;;;;;526788;27;1034;-60
2023/01/07 01:39:16;;;;;;;1.10;0.60;;;;;;;;;;528496;27;1124;-60
2023/01/07 01:39:31;;;;;;;1.30;0.50;;;;;;;;;;527147;27;1088;-60
2023/01/07 01:39:47;;;;;;;0.98;0.52;;;;;;;;;;528052;27;1032;-60
2023/01/07 01:40:05;;;;;;;1.10;0.60;;;;;;;;;;529821;27;1195;-60
2023/01/07 01:40:20;;;;;;;1.02;0.50;;;;;;;;;;529627;27;1966;-60
2023/01/07 01:40:36;;;;;;;0.77;0.57;;;;;;;;;;527994;27;1876;-61
2023/01/07 01:40:51;;;;;;;0.77;0.60;;;;;;;;;;526913;27;1460;-60
2023/01/07 01:41:07;;;;;;;1.43;0.50;;;;;;;;;;525756;27;1170;-60
2023/01/07 01:41:22;;;;;;;2.08;0.50;;;;;;;;;;524963;28;1200;-60
2023/01/07 01:41:38;;;;;;;1.83;0.50;;;;;;;;;;525752;28;1149;-60
2023/01/07 01:41:53;;;;;;;1.33;0.50;;;;;;;;;;526064;28;1021;-59